sensor_id;sensor_type;location;lat;lon;timestamp;P1;durP1;ratioP1;P2;durP2;ratioP2
30824;SDS011;17550;45.486;12.222;2023-04-25T00:01:04;10.63;;;5.93;;
30824;SDS011;17550;45.486;12.222;2023-04-25T00:03:31;7.70;;;5.75;;
30824;SDS011;17550;45.486;12.222;2023-04-25T00:05:58;13.32;;;6.32;;
30824;SDS011;17550;45.486;12.222;2023-04-25T00:08:27;9.50;;;5.93;;
30824;SDS011;17550;45.486;12.222;2023-04-25T00:10:55;9.57;;;5.22;;
30824;SDS011;17550;45.486;12.222;2023-04-25T00:13:21;8.35;;;6.30;;
30824;SDS011;17550;45.486;12.222;2023-04-25T00:15:47;11.52;;;6.35;;
30824;SDS011;17550;45.486;12.222;2023-04-25T00:18:13;9.40;;;7.00;;
30824;SDS011;17550;45.486;12.222;2023-04-25T00:20:40;8.05;;;6.55;;
30824;SDS011;17550;45.486;12.222;2023-04-25T00:23:15;10.27;;;6.60;;
30824;SDS011;17550;45.486;12.222;2023-04-25T00:25:42;8.43;;;6.65;;
30824;SDS011;17550;45.486;12.222;2023-04-25T00:28:12;11.15;;;6.85;;
30824;SDS011;17550;45.486;12.222;2023-04-25T00:30:38;9.45;;;6.85;;
30824;SDS011;17550;45.486;12.222;2023-04-25T00:33:05;15.00;;;7.25;;
30824;SDS011;17550;45.486;12.222;2023-04-25T00:35:31;12.68;;;7.22;;
30824;SDS011;17550;45.486;12.222;2023-04-25T00:37:57;9.95;;;6.97;;
30824;SDS011;17550;45.486;12.222;2023-04-25T00:40:23;9.40;;;6.45;;
30824;SDS011;17550;45.486;12.222;2023-04-25T00:42:49;9.32;;;6.55;;
30824;SDS011;17550;45.486;12.222;2023-04-25T00:45:17;10.45;;;6.68;;
30824;SDS011;17550;45.486;12.222;2023-04-25T00:47:44;10.63;;;7.10;;
30824;SDS011;17550;45.486;12.222;2023-04-25T00:50:11;8.90;;;7.15;;
30824;SDS011;17550;45.486;12.222;2023-04-25T00:52:39;11.52;;;7.60;;
30824;SDS011;17550;45.486;12.222;2023-04-25T00:55:08;11.85;;;7.82;;
30824;SDS011;17550;45.486;12.222;2023-04-25T00:57:35;12.40;;;7.47;;
30824;SDS011;17550;45.486;12.222;2023-04-25T01:00:00;12.13;;;8.10;;
30824;SDS011;17550;45.486;12.222;2023-04-25T01:02:27;9.13;;;7.50;;
30824;SDS011;17550;45.486;12.222;2023-04-25T01:04:54;10.43;;;7.82;;
30824;SDS011;17550;45.486;12.222;2023-04-25T01:07:19;11.35;;;8.30;;
30824;SDS011;17550;45.486;12.222;2023-04-25T01:09:46;12.27;;;8.63;;
30824;SDS011;17550;45.486;12.222;2023-04-25T01:12:12;11.40;;;8.15;;
30824;SDS011;17550;45.486;12.222;2023-04-25T01:14:39;11.10;;;8.23;;
30824;SDS011;17550;45.486;12.222;2023-04-25T01:17:05;11.23;;;8.52;;
30824;SDS011;17550;45.486;12.222;2023-04-25T01:19:32;12.98;;;9.05;;
30824;SDS011;17550;45.486;12.222;2023-04-25T01:21:58;17.55;;;8.70;;
30824;SDS011;17550;45.486;12.222;2023-04-25T01:24:25;15.95;;;8.85;;
30824;SDS011;17550;45.486;12.222;2023-04-25T01:26:51;14.35;;;9.13;;
30824;SDS011;17550;45.486;12.222;2023-04-25T01:29:20;12.50;;;8.10;;
30824;SDS011;17550;45.486;12.222;2023-04-25T01:31:46;14.35;;;8.10;;
30824;SDS011;17550;45.486;12.222;2023-04-25T01:34:12;11.60;;;8.45;;
30824;SDS011;17550;45.486;12.222;2023-04-25T01:36:38;12.20;;;7.85;;
30824;SDS011;17550;45.486;12.222;2023-04-25T01:39:05;8.85;;;7.65;;
30824;SDS011;17550;45.486;12.222;2023-04-25T01:41:33;11.80;;;7.68;;
30824;SDS011;17550;45.486;12.222;2023-04-25T01:44:00;9.02;;;6.88;;
30824;SDS011;17550;45.486;12.222;2023-04-25T01:46:26;13.70;;;6.97;;
30824;SDS011;17550;45.486;12.222;2023-04-25T01:48:52;10.60;;;6.90;;
30824;SDS011;17550;45.486;12.222;2023-04-25T01:51:18;9.93;;;7.40;;
30824;SDS011;17550;45.486;12.222;2023-04-25T01:53:44;11.40;;;8.57;;
30824;SDS011;17550;45.486;12.222;2023-04-25T01:56:10;12.10;;;8.38;;
30824;SDS011;17550;45.486;12.222;2023-04-25T01:58:36;9.82;;;7.88;;
30824;SDS011;17550;45.486;12.222;2023-04-25T02:01:02;13.40;;;9.23;;
30824;SDS011;17550;45.486;12.222;2023-04-25T02:03:28;13.20;;;8.23;;
30824;SDS011;17550;45.486;12.222;2023-04-25T02:05:55;10.95;;;7.82;;
30824;SDS011;17550;45.486;12.222;2023-04-25T02:08:20;11.07;;;8.57;;
30824;SDS011;17550;45.486;12.222;2023-04-25T02:10:46;8.65;;;6.90;;
30824;SDS011;17550;45.486;12.222;2023-04-25T02:13:13;9.32;;;7.13;;
30824;SDS011;17550;45.486;12.222;2023-04-25T02:15:39;10.57;;;8.15;;
30824;SDS011;17550;45.486;12.222;2023-04-25T02:18:04;12.38;;;8.55;;
30824;SDS011;17550;45.486;12.222;2023-04-25T02:20:31;9.77;;;8.13;;
30824;SDS011;17550;45.486;12.222;2023-04-25T02:22:57;11.00;;;8.55;;
30824;SDS011;17550;45.486;12.222;2023-04-25T02:25:23;12.55;;;8.27;;
30824;SDS011;17550;45.486;12.222;2023-04-25T02:27:49;10.77;;;8.90;;
30824;SDS011;17550;45.486;12.222;2023-04-25T02:30:16;13.10;;;8.90;;
30824;SDS011;17550;45.486;12.222;2023-04-25T02:32:42;13.65;;;8.05;;
30824;SDS011;17550;45.486;12.222;2023-04-25T02:35:08;11.25;;;8.77;;
30824;SDS011;17550;45.486;12.222;2023-04-25T02:37:34;11.63;;;8.25;;
30824;SDS011;17550;45.486;12.222;2023-04-25T02:40:01;12.65;;;8.30;;
30824;SDS011;17550;45.486;12.222;2023-04-25T02:42:29;11.95;;;8.40;;
30824;SDS011;17550;45.486;12.222;2023-04-25T02:44:54;9.13;;;8.00;;
30824;SDS011;17550;45.486;12.222;2023-04-25T02:47:20;9.00;;;7.80;;
30824;SDS011;17550;45.486;12.222;2023-04-25T02:49:46;10.65;;;7.45;;
30824;SDS011;17550;45.486;12.222;2023-04-25T02:52:12;10.38;;;7.78;;
30824;SDS011;17550;45.486;12.222;2023-04-25T02:54:38;10.57;;;7.60;;
30824;SDS011;17550;45.486;12.222;2023-04-25T02:57:05;11.95;;;7.75;;
30824;SDS011;17550;45.486;12.222;2023-04-25T02:59:31;11.98;;;7.57;;
30824;SDS011;17550;45.486;12.222;2023-04-25T03:01:56;10.38;;;6.45;;
30824;SDS011;17550;45.486;12.222;2023-04-25T03:04:22;9.50;;;6.63;;
30824;SDS011;17550;45.486;12.222;2023-04-25T03:06:52;11.45;;;6.55;;
30824;SDS011;17550;45.486;12.222;2023-04-25T03:09:18;9.65;;;6.47;;
30824;SDS011;17550;45.486;12.222;2023-04-25T03:11:45;8.38;;;6.55;;
30824;SDS011;17550;45.486;12.222;2023-04-25T03:14:11;8.75;;;6.80;;
30824;SDS011;17550;45.486;12.222;2023-04-25T03:16:37;7.25;;;6.40;;
30824;SDS011;17550;45.486;12.222;2023-04-25T03:19:03;9.82;;;6.93;;
30824;SDS011;17550;45.486;12.222;2023-04-25T03:21:30;14.02;;;7.85;;
30824;SDS011;17550;45.486;12.222;2023-04-25T03:24:00;8.90;;;7.00;;
30824;SDS011;17550;45.486;12.222;2023-04-25T03:26:27;8.45;;;7.28;;
30824;SDS011;17550;45.486;12.222;2023-04-25T03:28:53;11.60;;;7.78;;
30824;SDS011;17550;45.486;12.222;2023-04-25T03:31:18;16.13;;;8.25;;
30824;SDS011;17550;45.486;12.222;2023-04-25T03:33:44;8.90;;;6.85;;
30824;SDS011;17550;45.486;12.222;2023-04-25T03:36:10;10.02;;;7.20;;
30824;SDS011;17550;45.486;12.222;2023-04-25T03:38:36;11.60;;;7.50;;
30824;SDS011;17550;45.486;12.222;2023-04-25T03:41:02;11.43;;;7.20;;
30824;SDS011;17550;45.486;12.222;2023-04-25T03:43:28;8.68;;;7.00;;
30824;SDS011;17550;45.486;12.222;2023-04-25T03:45:53;11.10;;;7.47;;
30824;SDS011;17550;45.486;12.222;2023-04-25T03:48:22;8.82;;;6.68;;
30824;SDS011;17550;45.486;12.222;2023-04-25T03:50:49;9.25;;;7.18;;
30824;SDS011;17550;45.486;12.222;2023-04-25T03:53:15;9.50;;;6.97;;
30824;SDS011;17550;45.486;12.222;2023-04-25T03:55:41;11.18;;;8.52;;
30824;SDS011;17550;45.486;12.222;2023-04-25T03:58:06;9.07;;;8.02;;
30824;SDS011;17550;45.486;12.222;2023-04-25T04:00:33;13.68;;;9.98;;
30824;SDS011;17550;45.486;12.222;2023-04-25T04:02:59;15.63;;;10.25;;
30824;SDS011;17550;45.486;12.222;2023-04-25T04:05:25;11.25;;;9.65;;
30824;SDS011;17550;45.486;12.222;2023-04-25T04:07:51;13.20;;;10.35;;
30824;SDS011;17550;45.486;12.222;2023-04-25T04:10:17;12.13;;;10.30;;
30824;SDS011;17550;45.486;12.222;2023-04-25T04:12:42;14.38;;;9.50;;
30824;SDS011;17550;45.486;12.222;2023-04-25T04:15:09;13.93;;;9.27;;
30824;SDS011;17550;45.486;12.222;2023-04-25T04:17:35;18.90;;;9.77;;
30824;SDS011;17550;45.486;12.222;2023-04-25T04:20:01;12.13;;;8.90;;
30824;SDS011;17550;45.486;12.222;2023-04-25T04:22:28;16.30;;;9.05;;
30824;SDS011;17550;45.486;12.222;2023-04-25T04:24:54;11.82;;;8.45;;
30824;SDS011;17550;45.486;12.222;2023-04-25T04:27:19;11.38;;;7.55;;
30824;SDS011;17550;45.486;12.222;2023-04-25T04:29:46;11.00;;;8.13;;
30824;SDS011;17550;45.486;12.222;2023-04-25T04:32:12;9.52;;;6.88;;
30824;SDS011;17550;45.486;12.222;2023-04-25T04:34:39;10.05;;;7.20;;
30824;SDS011;17550;45.486;12.222;2023-04-25T04:37:06;9.05;;;7.03;;
30824;SDS011;17550;45.486;12.222;2023-04-25T04:39:32;9.70;;;6.22;;
30824;SDS011;17550;45.486;12.222;2023-04-25T04:41:58;8.52;;;5.80;;
30824;SDS011;17550;45.486;12.222;2023-04-25T04:44:26;10.60;;;6.28;;
30824;SDS011;17550;45.486;12.222;2023-04-25T04:46:53;9.85;;;6.28;;
30824;SDS011;17550;45.486;12.222;2023-04-25T04:49:19;11.88;;;6.43;;
30824;SDS011;17550;45.486;12.222;2023-04-25T04:51:45;9.70;;;7.57;;
30824;SDS011;17550;45.486;12.222;2023-04-25T04:54:12;10.05;;;7.45;;
30824;SDS011;17550;45.486;12.222;2023-04-25T04:56:37;11.88;;;7.25;;
30824;SDS011;17550;45.486;12.222;2023-04-25T04:59:03;11.07;;;7.40;;
30824;SDS011;17550;45.486;12.222;2023-04-25T05:01:29;11.25;;;7.25;;
30824;SDS011;17550;45.486;12.222;2023-04-25T05:03:55;12.52;;;8.00;;
30824;SDS011;17550;45.486;12.222;2023-04-25T05:06:25;14.10;;;8.30;;
30824;SDS011;17550;45.486;12.222;2023-04-25T05:08:51;9.50;;;7.55;;
30824;SDS011;17550;45.486;12.222;2023-04-25T05:11:18;12.70;;;7.13;;
30824;SDS011;17550;45.486;12.222;2023-04-25T05:13:44;10.13;;;8.55;;
30824;SDS011;17550;45.486;12.222;2023-04-25T05:16:10;13.40;;;8.60;;
30824;SDS011;17550;45.486;12.222;2023-04-25T05:18:37;15.10;;;9.07;;
30824;SDS011;17550;45.486;12.222;2023-04-25T05:21:04;17.20;;;9.02;;
30824;SDS011;17550;45.486;12.222;2023-04-25T05:23:30;13.25;;;8.90;;
30824;SDS011;17550;45.486;12.222;2023-04-25T05:25:56;10.82;;;8.32;;
30824;SDS011;17550;45.486;12.222;2023-04-25T05:28:22;13.68;;;9.00;;
30824;SDS011;17550;45.486;12.222;2023-04-25T05:30:47;11.90;;;8.98;;
30824;SDS011;17550;45.486;12.222;2023-04-25T05:33:13;17.73;;;8.40;;
30824;SDS011;17550;45.486;12.222;2023-04-25T05:35:39;10.18;;;7.78;;
30824;SDS011;17550;45.486;12.222;2023-04-25T05:38:05;10.38;;;7.47;;
30824;SDS011;17550;45.486;12.222;2023-04-25T05:40:31;12.85;;;7.53;;
30824;SDS011;17550;45.486;12.222;2023-04-25T05:43:00;14.48;;;7.70;;
30824;SDS011;17550;45.486;12.222;2023-04-25T05:45:25;12.52;;;7.72;;
30824;SDS011;17550;45.486;12.222;2023-04-25T05:47:51;12.23;;;7.45;;
30824;SDS011;17550;45.486;12.222;2023-04-25T05:50:17;10.52;;;6.20;;
30824;SDS011;17550;45.486;12.222;2023-04-25T05:52:42;12.77;;;6.32;;
30824;SDS011;17550;45.486;12.222;2023-04-25T05:55:08;11.48;;;4.90;;
30824;SDS011;17550;45.486;12.222;2023-04-25T05:57:34;7.55;;;3.95;;
30824;SDS011;17550;45.486;12.222;2023-04-25T06:00:00;7.88;;;5.47;;
30824;SDS011;17550;45.486;12.222;2023-04-25T06:02:26;7.13;;;5.25;;
30824;SDS011;17550;45.486;12.222;2023-04-25T06:04:52;11.10;;;6.10;;
30824;SDS011;17550;45.486;12.222;2023-04-25T06:07:18;8.27;;;5.38;;
30824;SDS011;17550;45.486;12.222;2023-04-25T06:09:44;8.65;;;4.90;;
30824;SDS011;17550;45.486;12.222;2023-04-25T06:12:10;5.90;;;4.45;;
30824;SDS011;17550;45.486;12.222;2023-04-25T06:14:36;6.72;;;4.97;;
30824;SDS011;17550;45.486;12.222;2023-04-25T06:17:02;5.72;;;4.35;;
30824;SDS011;17550;45.486;12.222;2023-04-25T06:19:33;6.30;;;4.65;;
30824;SDS011;17550;45.486;12.222;2023-04-25T06:22:00;7.57;;;4.75;;
30824;SDS011;17550;45.486;12.222;2023-04-25T06:24:27;6.80;;;4.95;;
30824;SDS011;17550;45.486;12.222;2023-04-25T06:26:53;7.53;;;4.80;;
30824;SDS011;17550;45.486;12.222;2023-04-25T06:29:19;7.85;;;4.15;;
30824;SDS011;17550;45.486;12.222;2023-04-25T06:31:45;6.95;;;3.53;;
30824;SDS011;17550;45.486;12.222;2023-04-25T06:34:11;5.43;;;2.72;;
30824;SDS011;17550;45.486;12.222;2023-04-25T06:36:37;5.10;;;2.17;;
30824;SDS011;17550;45.486;12.222;2023-04-25T06:39:03;3.15;;;2.25;;
30824;SDS011;17550;45.486;12.222;2023-04-25T06:41:29;7.90;;;2.58;;
30824;SDS011;17550;45.486;12.222;2023-04-25T06:43:55;3.67;;;2.45;;
30824;SDS011;17550;45.486;12.222;2023-04-25T06:46:20;4.55;;;2.60;;
30824;SDS011;17550;45.486;12.222;2023-04-25T06:48:48;4.90;;;2.40;;
30824;SDS011;17550;45.486;12.222;2023-04-25T06:51:14;4.57;;;1.98;;
30824;SDS011;17550;45.486;12.222;2023-04-25T06:53:40;3.55;;;2.30;;
30824;SDS011;17550;45.486;12.222;2023-04-25T06:56:05;6.85;;;1.90;;
30824;SDS011;17550;45.486;12.222;2023-04-25T06:58:31;4.80;;;2.00;;
30824;SDS011;17550;45.486;12.222;2023-04-25T07:00:57;3.53;;;2.20;;
30824;SDS011;17550;45.486;12.222;2023-04-25T07:03:23;5.03;;;2.30;;
30824;SDS011;17550;45.486;12.222;2023-04-25T07:05:49;6.18;;;2.50;;
30824;SDS011;17550;45.486;12.222;2023-04-25T07:08:15;3.97;;;2.50;;
30824;SDS011;17550;45.486;12.222;2023-04-25T07:10:41;3.58;;;2.80;;
30824;SDS011;17550;45.486;12.222;2023-04-25T07:13:07;4.43;;;2.53;;
30824;SDS011;17550;45.486;12.222;2023-04-25T07:15:33;5.80;;;3.20;;
30824;SDS011;17550;45.486;12.222;2023-04-25T07:17:59;4.82;;;2.85;;
30824;SDS011;17550;45.486;12.222;2023-04-25T07:20:24;6.28;;;2.80;;
30824;SDS011;17550;45.486;12.222;2023-04-25T07:22:52;6.10;;;2.40;;
30824;SDS011;17550;45.486;12.222;2023-04-25T07:25:18;4.07;;;2.25;;
30824;SDS011;17550;45.486;12.222;2023-04-25T07:27:44;4.30;;;2.88;;
30824;SDS011;17550;45.486;12.222;2023-04-25T07:30:10;4.97;;;2.67;;
30824;SDS011;17550;45.486;12.222;2023-04-25T07:32:37;4.00;;;2.70;;
30824;SDS011;17550;45.486;12.222;2023-04-25T07:35:03;4.63;;;3.05;;
30824;SDS011;17550;45.486;12.222;2023-04-25T07:37:29;7.45;;;4.00;;
30824;SDS011;17550;45.486;12.222;2023-04-25T07:39:55;6.05;;;4.10;;
30824;SDS011;17550;45.486;12.222;2023-04-25T07:42:22;7.45;;;4.68;;
30824;SDS011;17550;45.486;12.222;2023-04-25T07:44:48;5.53;;;3.50;;
30824;SDS011;17550;45.486;12.222;2023-04-25T07:47:13;5.00;;;3.45;;
30824;SDS011;17550;45.486;12.222;2023-04-25T07:49:39;4.60;;;3.30;;
30824;SDS011;17550;45.486;12.222;2023-04-25T07:52:06;6.85;;;3.67;;
30824;SDS011;17550;45.486;12.222;2023-04-25T07:54:32;7.00;;;4.75;;
30824;SDS011;17550;45.486;12.222;2023-04-25T07:56:58;12.18;;;7.10;;
30824;SDS011;17550;45.486;12.222;2023-04-25T07:59:23;14.25;;;8.02;;
30824;SDS011;17550;45.486;12.222;2023-04-25T08:01:49;16.15;;;9.90;;
30824;SDS011;17550;45.486;12.222;2023-04-25T08:04:15;16.88;;;11.38;;
30824;SDS011;17550;45.486;12.222;2023-04-25T08:06:42;15.15;;;12.02;;
30824;SDS011;17550;45.486;12.222;2023-04-25T08:09:08;15.15;;;11.50;;
30824;SDS011;17550;45.486;12.222;2023-04-25T08:11:34;17.65;;;13.38;;
30824;SDS011;17550;45.486;12.222;2023-04-25T08:14:00;18.30;;;13.15;;
30824;SDS011;17550;45.486;12.222;2023-04-25T08:16:26;17.55;;;12.82;;
30824;SDS011;17550;45.486;12.222;2023-04-25T08:18:52;16.85;;;12.43;;
30824;SDS011;17550;45.486;12.222;2023-04-25T08:21:18;18.38;;;12.68;;
30824;SDS011;17550;45.486;12.222;2023-04-25T08:23:44;17.60;;;12.65;;
30824;SDS011;17550;45.486;12.222;2023-04-25T08:26:10;17.27;;;12.98;;
30824;SDS011;17550;45.486;12.222;2023-04-25T08:28:36;16.15;;;11.93;;
30824;SDS011;17550;45.486;12.222;2023-04-25T08:31:01;17.17;;;12.65;;
30824;SDS011;17550;45.486;12.222;2023-04-25T08:33:27;17.10;;;11.88;;
30824;SDS011;17550;45.486;12.222;2023-04-25T08:35:53;22.70;;;12.80;;
30824;SDS011;17550;45.486;12.222;2023-04-25T08:38:19;15.00;;;12.13;;
30824;SDS011;17550;45.486;12.222;2023-04-25T08:40:44;18.25;;;13.07;;
30824;SDS011;17550;45.486;12.222;2023-04-25T08:43:17;18.42;;;13.48;;
30824;SDS011;17550;45.486;12.222;2023-04-25T08:45:44;16.08;;;11.88;;
30824;SDS011;17550;45.486;12.222;2023-04-25T08:48:15;16.73;;;11.73;;
30824;SDS011;17550;45.486;12.222;2023-04-25T08:53:13;22.90;;;12.80;;
30824;SDS011;17550;45.486;12.222;2023-04-25T08:55:45;18.00;;;12.20;;
30824;SDS011;17550;45.486;12.222;2023-04-25T08:58:12;15.98;;;11.43;;
30824;SDS011;17550;45.486;12.222;2023-04-25T09:00:39;19.02;;;12.10;;
30824;SDS011;17550;45.486;12.222;2023-04-25T09:03:04;20.65;;;15.93;;
30824;SDS011;17550;45.486;12.222;2023-04-25T09:05:32;25.23;;;17.52;;
30824;SDS011;17550;45.486;12.222;2023-04-25T09:07:58;26.08;;;18.88;;
30824;SDS011;17550;45.486;12.222;2023-04-25T09:10:23;17.42;;;13.40;;
30824;SDS011;17550;45.486;12.222;2023-04-25T09:13:05;14.90;;;11.40;;
30824;SDS011;17550;45.486;12.222;2023-04-25T09:15:35;17.55;;;11.82;;
30824;SDS011;17550;45.486;12.222;2023-04-25T09:20:52;13.30;;;9.15;;
30824;SDS011;17550;45.486;12.222;2023-04-25T09:23:19;10.48;;;8.20;;
30824;SDS011;17550;45.486;12.222;2023-04-25T09:25:52;14.43;;;8.50;;
30824;SDS011;17550;45.486;12.222;2023-04-25T09:28:25;12.18;;;9.10;;
30824;SDS011;17550;45.486;12.222;2023-04-25T09:30:56;11.07;;;8.85;;
30824;SDS011;17550;45.486;12.222;2023-04-25T09:33:31;13.52;;;9.45;;
30824;SDS011;17550;45.486;12.222;2023-04-25T09:36:02;15.30;;;8.32;;
30824;SDS011;17550;45.486;12.222;2023-04-25T09:38:30;13.27;;;8.40;;
30824;SDS011;17550;45.486;12.222;2023-04-25T09:41:00;6.97;;;4.75;;
30824;SDS011;17550;45.486;12.222;2023-04-25T09:43:25;6.30;;;4.50;;
30824;SDS011;17550;45.486;12.222;2023-04-25T09:45:53;7.10;;;4.20;;
30824;SDS011;17550;45.486;12.222;2023-04-25T09:48:24;6.55;;;4.15;;
30824;SDS011;17550;45.486;12.222;2023-04-25T09:53:32;5.65;;;3.60;;
30824;SDS011;17550;45.486;12.222;2023-04-25T09:55:59;4.53;;;2.75;;
30824;SDS011;17550;45.486;12.222;2023-04-25T09:58:29;5.05;;;3.17;;
30824;SDS011;17550;45.486;12.222;2023-04-25T10:00:56;4.57;;;3.03;;
30824;SDS011;17550;45.486;12.222;2023-04-25T10:03:32;4.22;;;2.63;;
30824;SDS011;17550;45.486;12.222;2023-04-25T10:06:02;3.00;;;2.35;;
30824;SDS011;17550;45.486;12.222;2023-04-25T10:08:32;4.10;;;2.15;;
30824;SDS011;17550;45.486;12.222;2023-04-25T10:11:02;4.95;;;2.50;;
30824;SDS011;17550;45.486;12.222;2023-04-25T10:13:29;3.38;;;2.03;;
30824;SDS011;17550;45.486;12.222;2023-04-25T10:16:00;6.40;;;2.65;;
30824;SDS011;17550;45.486;12.222;2023-04-25T10:18:29;3.38;;;2.63;;
30824;SDS011;17550;45.486;12.222;2023-04-25T10:21:00;4.88;;;2.80;;
30824;SDS011;17550;45.486;12.222;2023-04-25T10:23:27;3.85;;;2.15;;
30824;SDS011;17550;45.486;12.222;2023-04-25T10:25:55;4.15;;;2.85;;
30824;SDS011;17550;45.486;12.222;2023-04-25T10:28:21;5.30;;;3.42;;
30824;SDS011;17550;45.486;12.222;2023-04-25T10:31:03;4.45;;;2.28;;
30824;SDS011;17550;45.486;12.222;2023-04-25T10:33:38;3.13;;;1.83;;
30824;SDS011;17550;45.486;12.222;2023-04-25T10:36:19;2.92;;;1.88;;
30824;SDS011;17550;45.486;12.222;2023-04-25T10:38:47;5.47;;;1.50;;
30824;SDS011;17550;45.486;12.222;2023-04-25T10:41:18;1.98;;;1.20;;
30824;SDS011;17550;45.486;12.222;2023-04-25T10:43:48;1.73;;;1.58;;
30824;SDS011;17550;45.486;12.222;2023-04-25T10:46:16;2.92;;;1.77;;
30824;SDS011;17550;45.486;12.222;2023-04-25T10:48:49;3.65;;;1.20;;
30824;SDS011;17550;45.486;12.222;2023-04-25T10:51:26;3.63;;;1.58;;
30824;SDS011;17550;45.486;12.222;2023-04-25T10:56:29;6.13;;;1.40;;
30824;SDS011;17550;45.486;12.222;2023-04-25T10:59:04;6.45;;;1.50;;
30824;SDS011;17550;45.486;12.222;2023-04-25T11:01:42;1.35;;;1.00;;
30824;SDS011;17550;45.486;12.222;2023-04-25T11:04:19;2.80;;;1.13;;
30824;SDS011;17550;45.486;12.222;2023-04-25T11:09:29;2.08;;;1.10;;
30824;SDS011;17550;45.486;12.222;2023-04-25T11:11:58;6.60;;;1.20;;
30824;SDS011;17550;45.486;12.222;2023-04-25T11:14:25;3.55;;;1.15;;
30824;SDS011;17550;45.486;12.222;2023-04-25T11:16:55;3.80;;;0.90;;
30824;SDS011;17550;45.486;12.222;2023-04-25T11:19:22;2.85;;;1.20;;
30824;SDS011;17550;45.486;12.222;2023-04-25T11:21:48;3.10;;;1.00;;
30824;SDS011;17550;45.486;12.222;2023-04-25T11:24:15;2.55;;;0.68;;
30824;SDS011;17550;45.486;12.222;2023-04-25T11:26:42;2.53;;;0.70;;
30824;SDS011;17550;45.486;12.222;2023-04-25T11:29:08;3.30;;;1.02;;
30824;SDS011;17550;45.486;12.222;2023-04-25T11:31:34;2.53;;;0.90;;
30824;SDS011;17550;45.486;12.222;2023-04-25T11:34:00;6.38;;;3.30;;
30824;SDS011;17550;45.486;12.222;2023-04-25T11:36:26;5.25;;;1.90;;
30824;SDS011;17550;45.486;12.222;2023-04-25T11:38:52;3.42;;;0.60;;
30824;SDS011;17550;45.486;12.222;2023-04-25T11:41:21;3.25;;;1.40;;
30824;SDS011;17550;45.486;12.222;2023-04-25T11:43:47;1.52;;;0.75;;
30824;SDS011;17550;45.486;12.222;2023-04-25T11:46:15;2.42;;;0.80;;
30824;SDS011;17550;45.486;12.222;2023-04-25T11:48:41;3.92;;;0.68;;
30824;SDS011;17550;45.486;12.222;2023-04-25T11:51:07;4.22;;;0.80;;
30824;SDS011;17550;45.486;12.222;2023-04-25T11:53:33;1.35;;;0.77;;
30824;SDS011;17550;45.486;12.222;2023-04-25T11:56:00;3.10;;;0.73;;
30824;SDS011;17550;45.486;12.222;2023-04-25T11:58:26;3.25;;;0.85;;
30824;SDS011;17550;45.486;12.222;2023-04-25T12:00:52;2.60;;;0.93;;
30824;SDS011;17550;45.486;12.222;2023-04-25T12:03:18;4.07;;;1.00;;
30824;SDS011;17550;45.486;12.222;2023-04-25T12:05:45;1.98;;;0.77;;
30824;SDS011;17550;45.486;12.222;2023-04-25T12:10:41;3.45;;;0.80;;
30824;SDS011;17550;45.486;12.222;2023-04-25T12:13:18;3.30;;;1.02;;
30824;SDS011;17550;45.486;12.222;2023-04-25T12:15:48;2.15;;;0.90;;
30824;SDS011;17550;45.486;12.222;2023-04-25T12:18:14;1.92;;;0.70;;
30824;SDS011;17550;45.486;12.222;2023-04-25T12:20:43;1.25;;;0.75;;
30824;SDS011;17550;45.486;12.222;2023-04-25T12:23:09;4.28;;;1.20;;
30824;SDS011;17550;45.486;12.222;2023-04-25T12:25:40;5.03;;;1.30;;
30824;SDS011;17550;45.486;12.222;2023-04-25T12:28:20;5.45;;;1.70;;
30824;SDS011;17550;45.486;12.222;2023-04-25T12:33:35;2.88;;;1.10;;
30824;SDS011;17550;45.486;12.222;2023-04-25T12:36:02;1.50;;;0.80;;
30824;SDS011;17550;45.486;12.222;2023-04-25T12:38:35;1.33;;;0.80;;
30824;SDS011;17550;45.486;12.222;2023-04-25T12:41:05;2.00;;;0.85;;
30824;SDS011;17550;45.486;12.222;2023-04-25T12:43:31;2.17;;;0.90;;
30824;SDS011;17550;45.486;12.222;2023-04-25T12:45:58;1.48;;;1.17;;
30824;SDS011;17550;45.486;12.222;2023-04-25T12:48:23;3.63;;;1.20;;
30824;SDS011;17550;45.486;12.222;2023-04-25T12:50:50;2.72;;;1.00;;
30824;SDS011;17550;45.486;12.222;2023-04-25T12:53:17;2.85;;;1.10;;
30824;SDS011;17550;45.486;12.222;2023-04-25T12:55:44;3.85;;;1.30;;
30824;SDS011;17550;45.486;12.222;2023-04-25T12:58:14;2.13;;;0.80;;
30824;SDS011;17550;45.486;12.222;2023-04-25T13:00:40;2.00;;;1.27;;
30824;SDS011;17550;45.486;12.222;2023-04-25T13:03:07;1.35;;;1.00;;
30824;SDS011;17550;45.486;12.222;2023-04-25T13:05:33;1.83;;;0.85;;
30824;SDS011;17550;45.486;12.222;2023-04-25T13:07:59;2.28;;;0.85;;
30824;SDS011;17550;45.486;12.222;2023-04-25T13:10:24;1.23;;;0.90;;
30824;SDS011;17550;45.486;12.222;2023-04-25T13:12:50;3.50;;;0.85;;
30824;SDS011;17550;45.486;12.222;2023-04-25T13:15:16;4.93;;;0.90;;
30824;SDS011;17550;45.486;12.222;2023-04-25T13:17:42;1.88;;;0.90;;
30824;SDS011;17550;45.486;12.222;2023-04-25T13:20:08;2.50;;;1.00;;
30824;SDS011;17550;45.486;12.222;2023-04-25T13:22:37;1.10;;;1.00;;
30824;SDS011;17550;45.486;12.222;2023-04-25T13:25:04;1.20;;;0.90;;
30824;SDS011;17550;45.486;12.222;2023-04-25T13:27:31;1.52;;;0.90;;
30824;SDS011;17550;45.486;12.222;2023-04-25T13:29:59;1.23;;;0.80;;
30824;SDS011;17550;45.486;12.222;2023-04-25T13:32:29;3.10;;;1.00;;
30824;SDS011;17550;45.486;12.222;2023-04-25T13:34:55;1.17;;;0.80;;
30824;SDS011;17550;45.486;12.222;2023-04-25T13:37:21;1.27;;;0.90;;
30824;SDS011;17550;45.486;12.222;2023-04-25T13:39:49;2.25;;;0.82;;
30824;SDS011;17550;45.486;12.222;2023-04-25T13:42:15;0.85;;;0.75;;
30824;SDS011;17550;45.486;12.222;2023-04-25T13:44:40;3.55;;;1.30;;
30824;SDS011;17550;45.486;12.222;2023-04-25T13:47:06;1.95;;;1.42;;
30824;SDS011;17550;45.486;12.222;2023-04-25T13:49:32;2.78;;;1.95;;
30824;SDS011;17550;45.486;12.222;2023-04-25T13:51:58;2.70;;;1.02;;
30824;SDS011;17550;45.486;12.222;2023-04-25T13:54:23;1.80;;;1.00;;
30824;SDS011;17550;45.486;12.222;2023-04-25T13:56:49;1.27;;;1.10;;
30824;SDS011;17550;45.486;12.222;2023-04-25T13:59:15;2.55;;;0.80;;
30824;SDS011;17550;45.486;12.222;2023-04-25T14:01:41;2.38;;;0.98;;
30824;SDS011;17550;45.486;12.222;2023-04-25T14:04:07;1.50;;;1.00;;
30824;SDS011;17550;45.486;12.222;2023-04-25T14:06:33;1.55;;;1.00;;
30824;SDS011;17550;45.486;12.222;2023-04-25T14:09:00;2.45;;;1.00;;
30824;SDS011;17550;45.486;12.222;2023-04-25T14:11:26;2.08;;;1.02;;
30824;SDS011;17550;45.486;12.222;2023-04-25T14:13:51;2.00;;;1.00;;
30824;SDS011;17550;45.486;12.222;2023-04-25T14:16:17;1.80;;;1.00;;
30824;SDS011;17550;45.486;12.222;2023-04-25T14:18:43;1.15;;;0.70;;
30824;SDS011;17550;45.486;12.222;2023-04-25T14:21:08;1.15;;;0.80;;
30824;SDS011;17550;45.486;12.222;2023-04-25T14:23:35;2.03;;;0.82;;
30824;SDS011;17550;45.486;12.222;2023-04-25T14:26:00;1.63;;;0.88;;
30824;SDS011;17550;45.486;12.222;2023-04-25T14:28:26;0.88;;;0.70;;
30824;SDS011;17550;45.486;12.222;2023-04-25T14:30:52;2.50;;;1.02;;
30824;SDS011;17550;45.486;12.222;2023-04-25T14:33:18;2.58;;;1.20;;
30824;SDS011;17550;45.486;12.222;2023-04-25T14:35:43;1.38;;;0.90;;
30824;SDS011;17550;45.486;12.222;2023-04-25T14:38:09;4.40;;;1.23;;
30824;SDS011;17550;45.486;12.222;2023-04-25T14:40:35;2.28;;;1.40;;
30824;SDS011;17550;45.486;12.222;2023-04-25T14:43:01;1.92;;;1.20;;
30824;SDS011;17550;45.486;12.222;2023-04-25T14:45:27;2.53;;;1.10;;